Terminal Aerodrome Forecast
Issued by NWS Blacksburg, VA

Home | Current Version | Previous Version | Text Only | Print | Product List | Glossary On
Versions: 1 2 3 4 5 6 7 8 9 10 11 12 13 14 15 16 17 18 19 20 21 22 23
000
FTUS41 KRNK 232328
TAFDAN
TAF
KDAN 232328Z 2400/2424 06007KT P6SM -RA OVC008
      TEMPO 2403/2406 4SM -SHRA OVC003
     FM240600 VRB03KT 4SM -RA BR OVC003
     FM240800 VRB03KT 2SM BR VCSH OVC004
     FM241500 06005KT 4SM -SHRA BR OVC004
     FM242000 10009KT 6SM SHRA BR VCTS SCT008 OVC016CB=

USA.gov is the U.S. government's official web portal to all federal, state and local government web resources and services.